sensor_id;sensor_type;location;lat;lon;timestamp;temperature;humidity
52849;DHT22;38714;53.180;5.812;2024-01-30T00:02:14;5.00;99.90
52849;DHT22;38714;53.180;5.812;2024-01-30T00:04:40;4.90;99.90
52849;DHT22;38714;53.180;5.812;2024-01-30T00:07:05;4.90;99.90
52849;DHT22;38714;53.180;5.812;2024-01-30T00:09:31;5.00;99.90
52849;DHT22;38714;53.180;5.812;2024-01-30T00:11:57;5.00;99.90
52849;DHT22;38714;53.180;5.812;2024-01-30T00:14:22;5.00;99.90
52849;DHT22;38714;53.180;5.812;2024-01-30T00:16:48;5.00;99.90
52849;DHT22;38714;53.180;5.812;2024-01-30T00:19:14;4.90;99.90
52849;DHT22;38714;53.180;5.812;2024-01-30T00:21:39;4.90;99.90
52849;DHT22;38714;53.180;5.812;2024-01-30T00:24:05;4.90;99.90
52849;DHT22;38714;53.180;5.812;2024-01-30T00:26:31;4.90;99.90
52849;DHT22;38714;53.180;5.812;2024-01-30T00:28:56;4.90;99.90
52849;DHT22;38714;53.180;5.812;2024-01-30T00:31:22;4.80;99.90
52849;DHT22;38714;53.180;5.812;2024-01-30T00:33:47;4.80;99.90
52849;DHT22;38714;53.180;5.812;2024-01-30T00:36:13;4.80;99.90
52849;DHT22;38714;53.180;5.812;2024-01-30T00:38:39;4.80;99.90
52849;DHT22;38714;53.180;5.812;2024-01-30T00:41:07;4.80;99.90
52849;DHT22;38714;53.180;5.812;2024-01-30T00:43:33;4.80;99.90
52849;DHT22;38714;53.180;5.812;2024-01-30T00:45:59;4.80;99.90
52849;DHT22;38714;53.180;5.812;2024-01-30T00:48:25;4.80;99.90
52849;DHT22;38714;53.180;5.812;2024-01-30T00:50:50;4.80;99.90
52849;DHT22;38714;53.180;5.812;2024-01-30T00:53:16;4.80;99.90
52849;DHT22;38714;53.180;5.812;2024-01-30T00:55:41;4.80;99.90
52849;DHT22;38714;53.180;5.812;2024-01-30T00:58:07;4.80;99.90
52849;DHT22;38714;53.180;5.812;2024-01-30T01:00:33;4.70;99.90
52849;DHT22;38714;53.180;5.812;2024-01-30T01:02:59;4.70;99.90
52849;DHT22;38714;53.180;5.812;2024-01-30T01:05:25;4.60;99.90
52849;DHT22;38714;53.180;5.812;2024-01-30T01:07:51;4.70;99.90
52849;DHT22;38714;53.180;5.812;2024-01-30T01:10:17;4.60;99.90
52849;DHT22;38714;53.180;5.812;2024-01-30T01:12:43;4.70;99.90
52849;DHT22;38714;53.180;5.812;2024-01-30T01:15:09;4.60;99.90
52849;DHT22;38714;53.180;5.812;2024-01-30T01:17:35;4.70;99.90
52849;DHT22;38714;53.180;5.812;2024-01-30T01:20:02;4.60;99.90
52849;DHT22;38714;53.180;5.812;2024-01-30T01:22:29;4.60;99.90
52849;DHT22;38714;53.180;5.812;2024-01-30T01:24:55;4.60;99.90
52849;DHT22;38714;53.180;5.812;2024-01-30T01:27:20;4.60;99.90
52849;DHT22;38714;53.180;5.812;2024-01-30T01:29:46;4.60;99.90
52849;DHT22;38714;53.180;5.812;2024-01-30T01:32:12;4.70;99.90
52849;DHT22;38714;53.180;5.812;2024-01-30T01:34:37;4.70;99.90
52849;DHT22;38714;53.180;5.812;2024-01-30T01:37:04;4.70;99.90
52849;DHT22;38714;53.180;5.812;2024-01-30T01:39:29;4.70;99.90
52849;DHT22;38714;53.180;5.812;2024-01-30T01:41:55;4.70;99.90
52849;DHT22;38714;53.180;5.812;2024-01-30T01:44:20;4.70;99.90
52849;DHT22;38714;53.180;5.812;2024-01-30T01:46:46;4.70;99.90
52849;DHT22;38714;53.180;5.812;2024-01-30T01:49:13;4.70;99.90
52849;DHT22;38714;53.180;5.812;2024-01-30T01:51:39;4.70;99.90
52849;DHT22;38714;53.180;5.812;2024-01-30T01:54:06;4.80;99.90
52849;DHT22;38714;53.180;5.812;2024-01-30T01:56:33;4.80;99.90
52849;DHT22;38714;53.180;5.812;2024-01-30T01:59:08;4.80;99.90
52849;DHT22;38714;53.180;5.812;2024-01-30T02:01:36;4.80;99.90
52849;DHT22;38714;53.180;5.812;2024-01-30T02:04:02;4.80;99.90
52849;DHT22;38714;53.180;5.812;2024-01-30T02:06:28;4.90;99.90
52849;DHT22;38714;53.180;5.812;2024-01-30T02:08:54;4.90;99.90
52849;DHT22;38714;53.180;5.812;2024-01-30T02:11:20;4.90;99.90
52849;DHT22;38714;53.180;5.812;2024-01-30T02:13:46;4.90;99.90
52849;DHT22;38714;53.180;5.812;2024-01-30T02:16:11;4.90;99.90
52849;DHT22;38714;53.180;5.812;2024-01-30T02:18:37;5.00;99.90
52849;DHT22;38714;53.180;5.812;2024-01-30T02:21:07;5.10;99.90
52849;DHT22;38714;53.180;5.812;2024-01-30T02:23:33;5.10;99.90
52849;DHT22;38714;53.180;5.812;2024-01-30T02:26:00;5.10;99.90
52849;DHT22;38714;53.180;5.812;2024-01-30T02:28:26;5.10;99.90
52849;DHT22;38714;53.180;5.812;2024-01-30T02:30:52;5.20;99.90
52849;DHT22;38714;53.180;5.812;2024-01-30T02:33:18;5.20;99.90
52849;DHT22;38714;53.180;5.812;2024-01-30T02:35:43;5.20;99.90
52849;DHT22;38714;53.180;5.812;2024-01-30T02:38:09;5.20;99.90
52849;DHT22;38714;53.180;5.812;2024-01-30T02:40:34;5.30;99.90
52849;DHT22;38714;53.180;5.812;2024-01-30T02:43:02;5.30;99.90
52849;DHT22;38714;53.180;5.812;2024-01-30T02:45:28;5.30;99.90
52849;DHT22;38714;53.180;5.812;2024-01-30T02:47:54;5.40;99.90
52849;DHT22;38714;53.180;5.812;2024-01-30T02:50:19;5.40;99.90
52849;DHT22;38714;53.180;5.812;2024-01-30T02:52:45;5.40;99.90
52849;DHT22;38714;53.180;5.812;2024-01-30T02:55:11;5.40;99.90
52849;DHT22;38714;53.180;5.812;2024-01-30T02:57:37;5.40;99.90
52849;DHT22;38714;53.180;5.812;2024-01-30T03:00:03;5.40;99.90
52849;DHT22;38714;53.180;5.812;2024-01-30T03:02:31;5.40;99.90
52849;DHT22;38714;53.180;5.812;2024-01-30T03:04:56;5.40;99.90
52849;DHT22;38714;53.180;5.812;2024-01-30T03:07:22;5.40;99.90
52849;DHT22;38714;53.180;5.812;2024-01-30T03:09:47;5.40;99.90
52849;DHT22;38714;53.180;5.812;2024-01-30T03:12:13;5.40;99.90
52849;DHT22;38714;53.180;5.812;2024-01-30T03:14:39;5.40;99.90
52849;DHT22;38714;53.180;5.812;2024-01-30T03:17:05;5.30;99.90
52849;DHT22;38714;53.180;5.812;2024-01-30T03:19:30;5.30;99.90
52849;DHT22;38714;53.180;5.812;2024-01-30T03:21:56;5.30;99.90
52849;DHT22;38714;53.180;5.812;2024-01-30T03:24:21;5.30;99.90
52849;DHT22;38714;53.180;5.812;2024-01-30T03:26:47;5.30;99.90
52849;DHT22;38714;53.180;5.812;2024-01-30T03:29:13;5.30;99.90
52849;DHT22;38714;53.180;5.812;2024-01-30T03:31:39;5.20;99.90
52849;DHT22;38714;53.180;5.812;2024-01-30T03:34:05;5.20;99.90
52849;DHT22;38714;53.180;5.812;2024-01-30T03:36:30;5.20;99.90
52849;DHT22;38714;53.180;5.812;2024-01-30T03:38:58;5.20;99.90
52849;DHT22;38714;53.180;5.812;2024-01-30T03:41:24;5.20;99.90
52849;DHT22;38714;53.180;5.812;2024-01-30T03:43:50;5.20;99.90
52849;DHT22;38714;53.180;5.812;2024-01-30T03:46:15;5.20;99.90
52849;DHT22;38714;53.180;5.812;2024-01-30T03:48:41;5.20;99.90
52849;DHT22;38714;53.180;5.812;2024-01-30T03:51:07;5.20;99.90
52849;DHT22;38714;53.180;5.812;2024-01-30T03:53:32;5.30;99.90
52849;DHT22;38714;53.180;5.812;2024-01-30T03:55:58;5.30;99.90
52849;DHT22;38714;53.180;5.812;2024-01-30T03:58:23;5.30;99.90
52849;DHT22;38714;53.180;5.812;2024-01-30T04:00:49;5.30;99.90
52849;DHT22;38714;53.180;5.812;2024-01-30T04:03:15;5.40;99.90
52849;DHT22;38714;53.180;5.812;2024-01-30T04:05:41;5.40;99.90
52849;DHT22;38714;53.180;5.812;2024-01-30T04:08:07;5.40;99.90
52849;DHT22;38714;53.180;5.812;2024-01-30T04:10:33;5.40;99.90
52849;DHT22;38714;53.180;5.812;2024-01-30T04:12:58;5.40;99.90
52849;DHT22;38714;53.180;5.812;2024-01-30T04:15:25;5.50;99.90
52849;DHT22;38714;53.180;5.812;2024-01-30T04:17:50;5.50;99.90
52849;DHT22;38714;53.180;5.812;2024-01-30T04:20:16;5.50;99.90
52849;DHT22;38714;53.180;5.812;2024-01-30T04:22:46;5.60;99.90
52849;DHT22;38714;53.180;5.812;2024-01-30T04:25:14;5.60;99.90
52849;DHT22;38714;53.180;5.812;2024-01-30T04:27:40;5.60;99.90
52849;DHT22;38714;53.180;5.812;2024-01-30T04:30:06;5.60;99.90
52849;DHT22;38714;53.180;5.812;2024-01-30T04:32:32;5.60;99.90
52849;DHT22;38714;53.180;5.812;2024-01-30T04:34:58;5.60;99.90
52849;DHT22;38714;53.180;5.812;2024-01-30T04:37:24;5.60;99.90
52849;DHT22;38714;53.180;5.812;2024-01-30T04:39:50;5.60;99.90
52849;DHT22;38714;53.180;5.812;2024-01-30T04:42:16;5.70;99.90
52849;DHT22;38714;53.180;5.812;2024-01-30T04:44:42;5.60;99.90
52849;DHT22;38714;53.180;5.812;2024-01-30T04:47:07;5.70;99.90
52849;DHT22;38714;53.180;5.812;2024-01-30T04:49:36;5.70;99.90
52849;DHT22;38714;53.180;5.812;2024-01-30T04:52:01;5.70;99.90
52849;DHT22;38714;53.180;5.812;2024-01-30T04:54:27;5.60;99.90
52849;DHT22;38714;53.180;5.812;2024-01-30T04:56:53;5.70;99.90
52849;DHT22;38714;53.180;5.812;2024-01-30T04:59:18;5.70;99.90
52849;DHT22;38714;53.180;5.812;2024-01-30T05:01:44;5.70;99.90
52849;DHT22;38714;53.180;5.812;2024-01-30T05:04:09;5.70;99.90
52849;DHT22;38714;53.180;5.812;2024-01-30T05:06:35;5.70;99.90
52849;DHT22;38714;53.180;5.812;2024-01-30T05:09:01;5.70;99.90
52849;DHT22;38714;53.180;5.812;2024-01-30T05:11:26;5.70;99.90
52849;DHT22;38714;53.180;5.812;2024-01-30T05:13:52;5.70;99.90
52849;DHT22;38714;53.180;5.812;2024-01-30T05:16:17;5.80;99.90
52849;DHT22;38714;53.180;5.812;2024-01-30T05:18:43;5.70;99.90
52849;DHT22;38714;53.180;5.812;2024-01-30T05:21:10;5.80;99.90
52849;DHT22;38714;53.180;5.812;2024-01-30T05:23:35;5.80;99.90
52849;DHT22;38714;53.180;5.812;2024-01-30T05:26:01;5.80;99.90
52849;DHT22;38714;53.180;5.812;2024-01-30T05:28:30;5.80;99.90
52849;DHT22;38714;53.180;5.812;2024-01-30T05:30:56;5.80;99.90
52849;DHT22;38714;53.180;5.812;2024-01-30T05:33:22;5.80;99.90
52849;DHT22;38714;53.180;5.812;2024-01-30T05:35:47;5.80;99.90
52849;DHT22;38714;53.180;5.812;2024-01-30T05:38:15;5.80;99.90
52849;DHT22;38714;53.180;5.812;2024-01-30T05:40:41;5.80;99.90
52849;DHT22;38714;53.180;5.812;2024-01-30T05:43:07;5.80;99.90
52849;DHT22;38714;53.180;5.812;2024-01-30T05:45:33;5.80;99.90
52849;DHT22;38714;53.180;5.812;2024-01-30T05:48:00;5.80;99.90
52849;DHT22;38714;53.180;5.812;2024-01-30T05:50:26;5.80;99.90
52849;DHT22;38714;53.180;5.812;2024-01-30T05:52:52;5.80;99.90
52849;DHT22;38714;53.180;5.812;2024-01-30T05:55:18;5.80;99.90
52849;DHT22;38714;53.180;5.812;2024-01-30T05:57:43;5.90;99.90
52849;DHT22;38714;53.180;5.812;2024-01-30T06:00:09;5.90;99.90
52849;DHT22;38714;53.180;5.812;2024-01-30T06:02:35;5.90;99.90
52849;DHT22;38714;53.180;5.812;2024-01-30T06:05:00;5.90;99.90
52849;DHT22;38714;53.180;5.812;2024-01-30T06:07:26;5.90;99.90
52849;DHT22;38714;53.180;5.812;2024-01-30T06:09:51;5.90;99.90
52849;DHT22;38714;53.180;5.812;2024-01-30T06:12:17;5.90;99.90
52849;DHT22;38714;53.180;5.812;2024-01-30T06:14:43;5.90;99.90
52849;DHT22;38714;53.180;5.812;2024-01-30T06:17:09;5.90;99.90
52849;DHT22;38714;53.180;5.812;2024-01-30T06:19:35;5.90;99.90
52849;DHT22;38714;53.180;5.812;2024-01-30T06:22:00;6.00;99.90
52849;DHT22;38714;53.180;5.812;2024-01-30T06:24:26;6.00;99.90
52849;DHT22;38714;53.180;5.812;2024-01-30T06:26:53;6.00;99.90
52849;DHT22;38714;53.180;5.812;2024-01-30T06:29:18;6.00;99.90
52849;DHT22;38714;53.180;5.812;2024-01-30T06:31:44;6.00;99.90
52849;DHT22;38714;53.180;5.812;2024-01-30T06:34:10;6.00;99.90
52849;DHT22;38714;53.180;5.812;2024-01-30T06:36:37;6.00;99.90
52849;DHT22;38714;53.180;5.812;2024-01-30T06:39:03;6.00;99.90
52849;DHT22;38714;53.180;5.812;2024-01-30T06:41:29;6.00;99.90
52849;DHT22;38714;53.180;5.812;2024-01-30T06:43:55;6.00;99.90
52849;DHT22;38714;53.180;5.812;2024-01-30T06:46:21;6.00;99.90
52849;DHT22;38714;53.180;5.812;2024-01-30T06:48:46;6.00;99.90
52849;DHT22;38714;53.180;5.812;2024-01-30T06:51:12;6.10;99.90
52849;DHT22;38714;53.180;5.812;2024-01-30T06:53:38;6.10;99.90
52849;DHT22;38714;53.180;5.812;2024-01-30T06:56:04;6.10;99.90
52849;DHT22;38714;53.180;5.812;2024-01-30T06:58:30;6.10;99.90
52849;DHT22;38714;53.180;5.812;2024-01-30T07:00:56;6.10;99.90
52849;DHT22;38714;53.180;5.812;2024-01-30T07:03:22;6.10;99.90
52849;DHT22;38714;53.180;5.812;2024-01-30T07:05:47;6.20;99.90
52849;DHT22;38714;53.180;5.812;2024-01-30T07:08:13;6.10;99.90
52849;DHT22;38714;53.180;5.812;2024-01-30T07:10:39;6.10;99.90
52849;DHT22;38714;53.180;5.812;2024-01-30T07:13:04;6.10;99.90
52849;DHT22;38714;53.180;5.812;2024-01-30T07:15:31;6.10;99.90
52849;DHT22;38714;53.180;5.812;2024-01-30T07:17:57;6.10;99.90
52849;DHT22;38714;53.180;5.812;2024-01-30T07:20:22;6.10;99.90
52849;DHT22;38714;53.180;5.812;2024-01-30T07:22:48;6.20;99.90
52849;DHT22;38714;53.180;5.812;2024-01-30T07:25:14;6.20;99.90
52849;DHT22;38714;53.180;5.812;2024-01-30T07:27:39;6.20;99.90
52849;DHT22;38714;53.180;5.812;2024-01-30T07:30:05;6.30;99.90
52849;DHT22;38714;53.180;5.812;2024-01-30T07:32:31;6.30;99.90
52849;DHT22;38714;53.180;5.812;2024-01-30T07:34:57;6.30;99.90
52849;DHT22;38714;53.180;5.812;2024-01-30T07:37:23;6.40;99.90
52849;DHT22;38714;53.180;5.812;2024-01-30T07:39:48;6.40;99.90
52849;DHT22;38714;53.180;5.812;2024-01-30T07:42:14;6.40;99.90
52849;DHT22;38714;53.180;5.812;2024-01-30T07:44:39;6.40;99.90
52849;DHT22;38714;53.180;5.812;2024-01-30T07:47:05;6.40;99.90
52849;DHT22;38714;53.180;5.812;2024-01-30T07:49:31;6.50;99.90
52849;DHT22;38714;53.180;5.812;2024-01-30T07:51:57;6.50;99.90
52849;DHT22;38714;53.180;5.812;2024-01-30T07:54:23;6.50;99.90
52849;DHT22;38714;53.180;5.812;2024-01-30T07:56:49;6.50;99.90
52849;DHT22;38714;53.180;5.812;2024-01-30T07:59:15;6.50;99.90
52849;DHT22;38714;53.180;5.812;2024-01-30T08:01:41;6.60;99.90
52849;DHT22;38714;53.180;5.812;2024-01-30T08:04:06;6.60;99.90
52849;DHT22;38714;53.180;5.812;2024-01-30T08:06:32;6.60;99.90
52849;DHT22;38714;53.180;5.812;2024-01-30T08:08:58;6.70;99.90
52849;DHT22;38714;53.180;5.812;2024-01-30T08:11:24;6.70;99.90
52849;DHT22;38714;53.180;5.812;2024-01-30T08:13:54;6.80;99.90
52849;DHT22;38714;53.180;5.812;2024-01-30T08:16:19;6.80;99.90
52849;DHT22;38714;53.180;5.812;2024-01-30T08:18:45;6.90;99.90
52849;DHT22;38714;53.180;5.812;2024-01-30T08:21:11;7.00;99.90
52849;DHT22;38714;53.180;5.812;2024-01-30T08:23:38;7.00;99.90
52849;DHT22;38714;53.180;5.812;2024-01-30T08:26:04;7.10;99.90
52849;DHT22;38714;53.180;5.812;2024-01-30T08:28:30;7.10;99.90
52849;DHT22;38714;53.180;5.812;2024-01-30T08:30:56;7.20;99.90
52849;DHT22;38714;53.180;5.812;2024-01-30T08:33:21;7.30;99.90
52849;DHT22;38714;53.180;5.812;2024-01-30T08:35:47;7.30;99.90
52849;DHT22;38714;53.180;5.812;2024-01-30T08:38:13;7.40;99.90
52849;DHT22;38714;53.180;5.812;2024-01-30T08:40:38;7.40;99.90
52849;DHT22;38714;53.180;5.812;2024-01-30T08:43:04;7.50;99.90
52849;DHT22;38714;53.180;5.812;2024-01-30T08:45:30;7.60;99.90
52849;DHT22;38714;53.180;5.812;2024-01-30T08:47:56;7.70;99.90
52849;DHT22;38714;53.180;5.812;2024-01-30T08:50:22;7.70;99.90
52849;DHT22;38714;53.180;5.812;2024-01-30T08:52:48;7.80;99.90
52849;DHT22;38714;53.180;5.812;2024-01-30T08:55:13;7.80;99.90
52849;DHT22;38714;53.180;5.812;2024-01-30T08:57:39;7.90;99.90
52849;DHT22;38714;53.180;5.812;2024-01-30T09:00:05;7.80;99.90
52849;DHT22;38714;53.180;5.812;2024-01-30T09:02:33;8.00;99.90
52849;DHT22;38714;53.180;5.812;2024-01-30T09:04:59;8.00;99.90
52849;DHT22;38714;53.180;5.812;2024-01-30T09:07:25;8.10;99.90
52849;DHT22;38714;53.180;5.812;2024-01-30T09:09:50;8.10;99.90
52849;DHT22;38714;53.180;5.812;2024-01-30T09:12:16;8.20;99.90
52849;DHT22;38714;53.180;5.812;2024-01-30T09:14:42;8.30;99.90
52849;DHT22;38714;53.180;5.812;2024-01-30T09:17:07;8.30;99.90
52849;DHT22;38714;53.180;5.812;2024-01-30T09:19:33;8.30;99.90
52849;DHT22;38714;53.180;5.812;2024-01-30T09:21:59;8.30;99.90
52849;DHT22;38714;53.180;5.812;2024-01-30T09:24:26;8.40;99.90
52849;DHT22;38714;53.180;5.812;2024-01-30T09:26:52;8.40;99.90
52849;DHT22;38714;53.180;5.812;2024-01-30T09:29:17;8.40;99.90
52849;DHT22;38714;53.180;5.812;2024-01-30T09:31:44;8.50;99.90
52849;DHT22;38714;53.180;5.812;2024-01-30T09:34:10;8.50;99.90
52849;DHT22;38714;53.180;5.812;2024-01-30T09:36:36;8.50;99.90
52849;DHT22;38714;53.180;5.812;2024-01-30T09:39:01;8.50;99.90
52849;DHT22;38714;53.180;5.812;2024-01-30T09:41:27;8.50;99.90
52849;DHT22;38714;53.180;5.812;2024-01-30T09:43:54;8.50;99.90
52849;DHT22;38714;53.180;5.812;2024-01-30T09:46:21;8.50;99.90
52849;DHT22;38714;53.180;5.812;2024-01-30T09:48:48;8.60;99.90
52849;DHT22;38714;53.180;5.812;2024-01-30T09:51:15;8.60;99.90
52849;DHT22;38714;53.180;5.812;2024-01-30T09:53:42;8.60;99.90
52849;DHT22;38714;53.180;5.812;2024-01-30T09:56:09;8.60;99.90
52849;DHT22;38714;53.180;5.812;2024-01-30T09:58:35;8.60;99.90
52849;DHT22;38714;53.180;5.812;2024-01-30T10:01:00;8.70;99.90
52849;DHT22;38714;53.180;5.812;2024-01-30T10:03:26;8.70;99.90
52849;DHT22;38714;53.180;5.812;2024-01-30T10:05:52;8.70;99.90
52849;DHT22;38714;53.180;5.812;2024-01-30T10:08:18;8.70;99.90
52849;DHT22;38714;53.180;5.812;2024-01-30T10:10:48;8.70;99.90
52849;DHT22;38714;53.180;5.812;2024-01-30T10:13:15;8.70;99.90
52849;DHT22;38714;53.180;5.812;2024-01-30T10:15:41;8.70;99.90
52849;DHT22;38714;53.180;5.812;2024-01-30T10:18:08;8.70;99.90
52849;DHT22;38714;53.180;5.812;2024-01-30T10:20:35;8.70;99.90
52849;DHT22;38714;53.180;5.812;2024-01-30T10:23:01;8.70;99.90
52849;DHT22;38714;53.180;5.812;2024-01-30T10:25:27;8.70;99.90
52849;DHT22;38714;53.180;5.812;2024-01-30T10:27:56;8.70;99.90
52849;DHT22;38714;53.180;5.812;2024-01-30T10:30:22;8.60;99.90
52849;DHT22;38714;53.180;5.812;2024-01-30T10:32:48;8.70;99.90
52849;DHT22;38714;53.180;5.812;2024-01-30T10:35:14;8.60;99.90
52849;DHT22;38714;53.180;5.812;2024-01-30T10:37:40;8.60;99.90
52849;DHT22;38714;53.180;5.812;2024-01-30T10:40:06;8.60;99.90
52849;DHT22;38714;53.180;5.812;2024-01-30T10:42:36;8.60;99.90
52849;DHT22;38714;53.180;5.812;2024-01-30T10:45:28;8.60;99.90
52849;DHT22;38714;53.180;5.812;2024-01-30T10:47:55;8.60;99.90
52849;DHT22;38714;53.180;5.812;2024-01-30T10:50:24;8.60;99.90
52849;DHT22;38714;53.180;5.812;2024-01-30T10:52:50;8.60;99.90
52849;DHT22;38714;53.180;5.812;2024-01-30T10:55:16;8.50;99.90
52849;DHT22;38714;53.180;5.812;2024-01-30T10:57:43;8.60;99.90
52849;DHT22;38714;53.180;5.812;2024-01-30T11:00:10;8.60;99.90
52849;DHT22;38714;53.180;5.812;2024-01-30T11:02:43;8.50;99.90
52849;DHT22;38714;53.180;5.812;2024-01-30T11:05:09;8.60;99.90
52849;DHT22;38714;53.180;5.812;2024-01-30T11:07:35;8.50;99.90
52849;DHT22;38714;53.180;5.812;2024-01-30T11:10:04;8.60;99.90
52849;DHT22;38714;53.180;5.812;2024-01-30T11:12:32;8.60;99.90
52849;DHT22;38714;53.180;5.812;2024-01-30T11:18:00;8.50;99.90
52849;DHT22;38714;53.180;5.812;2024-01-30T11:20:28;8.60;99.90
52849;DHT22;38714;53.180;5.812;2024-01-30T11:22:58;8.60;99.90
52849;DHT22;38714;53.180;5.812;2024-01-30T11:25:25;8.60;99.90
52849;DHT22;38714;53.180;5.812;2024-01-30T11:27:52;8.60;99.90
52849;DHT22;38714;53.180;5.812;2024-01-30T11:30:26;8.60;99.90
52849;DHT22;38714;53.180;5.812;2024-01-30T11:33:06;8.60;99.90
52849;DHT22;38714;53.180;5.812;2024-01-30T11:35:41;8.60;99.90
52849;DHT22;38714;53.180;5.812;2024-01-30T11:38:13;8.60;99.90
52849;DHT22;38714;53.180;5.812;2024-01-30T11:40:39;8.60;99.90
52849;DHT22;38714;53.180;5.812;2024-01-30T11:43:07;8.60;99.90
52849;DHT22;38714;53.180;5.812;2024-01-30T11:45:34;8.60;99.90
52849;DHT22;38714;53.180;5.812;2024-01-30T11:48:00;8.50;99.90
52849;DHT22;38714;53.180;5.812;2024-01-30T11:50:32;8.50;99.90
52849;DHT22;38714;53.180;5.812;2024-01-30T11:52:59;8.50;99.90
52849;DHT22;38714;53.180;5.812;2024-01-30T11:55:25;8.50;99.90
52849;DHT22;38714;53.180;5.812;2024-01-30T11:57:54;8.50;99.90
52849;DHT22;38714;53.180;5.812;2024-01-30T12:00:20;8.50;99.90
52849;DHT22;38714;53.180;5.812;2024-01-30T12:02:54;8.50;99.90
52849;DHT22;38714;53.180;5.812;2024-01-30T12:05:23;8.60;99.90
52849;DHT22;38714;53.180;5.812;2024-01-30T12:07:49;8.60;99.90
52849;DHT22;38714;53.180;5.812;2024-01-30T12:10:15;8.60;99.90
52849;DHT22;38714;53.180;5.812;2024-01-30T12:12:49;8.60;99.90
52849;DHT22;38714;53.180;5.812;2024-01-30T12:15:15;8.60;99.90
52849;DHT22;38714;53.180;5.812;2024-01-30T12:17:41;8.60;99.90
52849;DHT22;38714;53.180;5.812;2024-01-30T12:20:14;8.60;99.90
52849;DHT22;38714;53.180;5.812;2024-01-30T12:22:46;8.60;99.90
52849;DHT22;38714;53.180;5.812;2024-01-30T12:25:20;8.60;99.90
52849;DHT22;38714;53.180;5.812;2024-01-30T12:27:47;8.60;99.90
52849;DHT22;38714;53.180;5.812;2024-01-30T12:30:18;8.60;99.90
52849;DHT22;38714;53.180;5.812;2024-01-30T12:32:46;8.60;99.90
52849;DHT22;38714;53.180;5.812;2024-01-30T12:35:17;8.60;99.90
52849;DHT22;38714;53.180;5.812;2024-01-30T12:37:45;8.60;99.90
52849;DHT22;38714;53.180;5.812;2024-01-30T12:40:12;8.60;99.90
52849;DHT22;38714;53.180;5.812;2024-01-30T12:42:46;8.60;99.90
52849;DHT22;38714;53.180;5.812;2024-01-30T12:45:14;8.60;99.90
52849;DHT22;38714;53.180;5.812;2024-01-30T12:47:41;8.60;99.90
52849;DHT22;38714;53.180;5.812;2024-01-30T12:50:07;8.60;99.90
52849;DHT22;38714;53.180;5.812;2024-01-30T12:52:32;8.60;99.90
52849;DHT22;38714;53.180;5.812;2024-01-30T12:54:58;8.60;99.90
52849;DHT22;38714;53.180;5.812;2024-01-30T12:57:24;8.60;99.90
52849;DHT22;38714;53.180;5.812;2024-01-30T12:59:49;8.60;99.90
52849;DHT22;38714;53.180;5.812;2024-01-30T13:02:16;8.60;99.90
52849;DHT22;38714;53.180;5.812;2024-01-30T13:04:42;8.50;99.90
52849;DHT22;38714;53.180;5.812;2024-01-30T13:07:07;8.50;99.90
52849;DHT22;38714;53.180;5.812;2024-01-30T13:09:33;8.50;99.90
52849;DHT22;38714;53.180;5.812;2024-01-30T13:11:59;8.50;99.90
52849;DHT22;38714;53.180;5.812;2024-01-30T13:14:25;8.50;99.90
52849;DHT22;38714;53.180;5.812;2024-01-30T13:16:51;8.50;99.90
52849;DHT22;38714;53.180;5.812;2024-01-30T13:19:17;8.50;99.90
52849;DHT22;38714;53.180;5.812;2024-01-30T13:21:43;8.50;99.90
52849;DHT22;38714;53.180;5.812;2024-01-30T13:24:08;8.50;99.90
52849;DHT22;38714;53.180;5.812;2024-01-30T13:26:35;8.50;99.90
52849;DHT22;38714;53.180;5.812;2024-01-30T13:29:00;8.50;99.90
52849;DHT22;38714;53.180;5.812;2024-01-30T13:31:26;8.50;99.90
52849;DHT22;38714;53.180;5.812;2024-01-30T13:33:53;8.50;99.90
52849;DHT22;38714;53.180;5.812;2024-01-30T13:36:19;8.50;99.90
52849;DHT22;38714;53.180;5.812;2024-01-30T13:38:44;8.50;99.90
52849;DHT22;38714;53.180;5.812;2024-01-30T13:41:10;8.50;99.90
52849;DHT22;38714;53.180;5.812;2024-01-30T13:43:35;8.50;99.90
52849;DHT22;38714;53.180;5.812;2024-01-30T13:46:01;8.50;99.90
52849;DHT22;38714;53.180;5.812;2024-01-30T13:48:27;8.50;99.90
52849;DHT22;38714;53.180;5.812;2024-01-30T13:50:53;8.50;99.90
52849;DHT22;38714;53.180;5.812;2024-01-30T13:53:19;8.50;99.90
52849;DHT22;38714;53.180;5.812;2024-01-30T13:55:44;8.50;99.90
52849;DHT22;38714;53.180;5.812;2024-01-30T13:58:10;8.50;99.90
52849;DHT22;38714;53.180;5.812;2024-01-30T14:00:36;8.40;99.90
52849;DHT22;38714;53.180;5.812;2024-01-30T14:03:01;8.50;99.90
52849;DHT22;38714;53.180;5.812;2024-01-30T14:05:28;8.50;99.90
52849;DHT22;38714;53.180;5.812;2024-01-30T14:07:54;8.50;99.90
52849;DHT22;38714;53.180;5.812;2024-01-30T14:10:20;8.50;99.90
52849;DHT22;38714;53.180;5.812;2024-01-30T14:12:46;8.50;99.90
52849;DHT22;38714;53.180;5.812;2024-01-30T14:15:14;8.50;99.90
52849;DHT22;38714;53.180;5.812;2024-01-30T14:17:44;8.50;99.90
52849;DHT22;38714;53.180;5.812;2024-01-30T14:20:10;8.50;99.90
52849;DHT22;38714;53.180;5.812;2024-01-30T14:22:36;8.40;99.90
52849;DHT22;38714;53.180;5.812;2024-01-30T14:25:02;8.40;99.90
52849;DHT22;38714;53.180;5.812;2024-01-30T14:27:31;8.40;99.90
52849;DHT22;38714;53.180;5.812;2024-01-30T14:29:57;8.40;99.90
52849;DHT22;38714;53.180;5.812;2024-01-30T14:32:23;8.40;99.90
52849;DHT22;38714;53.180;5.812;2024-01-30T14:34:52;8.40;99.90
52849;DHT22;38714;53.180;5.812;2024-01-30T14:37:19;8.40;99.90
52849;DHT22;38714;53.180;5.812;2024-01-30T14:39:45;8.40;99.90
52849;DHT22;38714;53.180;5.812;2024-01-30T14:42:11;8.30;99.90
52849;DHT22;38714;53.180;5.812;2024-01-30T14:44:36;8.40;99.90
52849;DHT22;38714;53.180;5.812;2024-01-30T14:47:02;8.40;99.90
52849;DHT22;38714;53.180;5.812;2024-01-30T14:49:27;8.30;99.90
52849;DHT22;38714;53.180;5.812;2024-01-30T14:51:53;8.30;99.90
52849;DHT22;38714;53.180;5.812;2024-01-30T14:54:19;8.30;99.90
52849;DHT22;38714;53.180;5.812;2024-01-30T14:56:45;8.30;99.90
52849;DHT22;38714;53.180;5.812;2024-01-30T14:59:10;8.30;99.90
52849;DHT22;38714;53.180;5.812;2024-01-30T15:01:36;8.30;99.90
52849;DHT22;38714;53.180;5.812;2024-01-30T15:04:02;8.30;99.90
52849;DHT22;38714;53.180;5.812;2024-01-30T15:06:28;8.30;99.90
52849;DHT22;38714;53.180;5.812;2024-01-30T15:08:54;8.20;99.90
52849;DHT22;38714;53.180;5.812;2024-01-30T15:11:20;8.30;99.90
52849;DHT22;38714;53.180;5.812;2024-01-30T15:13:46;8.20;99.90
52849;DHT22;38714;53.180;5.812;2024-01-30T15:16:12;8.20;99.90
52849;DHT22;38714;53.180;5.812;2024-01-30T15:18:38;8.20;99.90
52849;DHT22;38714;53.180;5.812;2024-01-30T15:21:03;8.10;99.90
52849;DHT22;38714;53.180;5.812;2024-01-30T15:23:29;8.10;99.90
52849;DHT22;38714;53.180;5.812;2024-01-30T15:25:55;8.10;99.90
52849;DHT22;38714;53.180;5.812;2024-01-30T15:28:33;8.10;99.90
52849;DHT22;38714;53.180;5.812;2024-01-30T15:30:59;8.10;99.90
52849;DHT22;38714;53.180;5.812;2024-01-30T15:33:25;8.00;99.90
52849;DHT22;38714;53.180;5.812;2024-01-30T15:35:51;8.00;99.90
52849;DHT22;38714;53.180;5.812;2024-01-30T15:38:18;8.00;99.90
52849;DHT22;38714;53.180;5.812;2024-01-30T15:40:44;7.90;99.90
52849;DHT22;38714;53.180;5.812;2024-01-30T15:43:10;7.90;99.90